Time;durP1;ratioP1;P1;durP2;ratioP2;P2;SDS_P1;SDS_P2;PMS_P1;PMS_P2;Temp;Humidity;BMP_temperature;BMP_pressure;BME280_temperature;BME280_humidity;BME280_pressure;Samples;Min_cycle;Max_cycle;Signal;HPM_P1;HPM_P2
2021/12/25 13:51:42;;;;;;;;;;;;;;;4.39;100.00;98417.41;5043218;23;19930;-90
2021/12/25 13:54:16;;;;;;;;;;;;;;;4.43;100.00;98416.34;4966879;28;20029;-89
2021/12/25 13:56:44;;;;;;;;;;;;;;;4.49;100.00;98405.59;4948293;28;19922;-88
2021/12/25 13:59:10;;;;;;;;;;;;;;;4.57;100.00;98417.59;4947712;28;19970;-91
2021/12/25 14:01:35;;;;;;;;;;;;;;;4.62;100.00;98405.13;4966134;28;19977;-90
2021/12/25 14:04:06;;;;;;;;;;;;;;;4.64;100.00;98413.78;4947492;28;19922;-93
2021/12/25 14:06:34;;;;;;;;;;;;;;;4.65;100.00;98410.25;4946694;28;19930;-93
2021/12/25 14:08:59;;;;;;;;;;;;;;;4.71;100.00;98412.63;4965418;28;19972;-92
2021/12/25 14:11:28;;;;;;;;;;;;;;;4.73;100.00;98414.25;4972010;28;19970;-91
2021/12/25 14:13:54;;;;;;;;;;;;;;;4.75;100.00;98408.94;4947622;28;19918;-90
2021/12/25 14:16:19;;;;;;;;;;;;;;;4.78;100.00;98400.94;4965397;28;19922;-91
2021/12/25 14:18:44;;;;;;;;;;;;;;;4.84;100.00;98399.84;4947572;28;19918;-92
2021/12/25 14:21:14;;;;;;;;;;;;;;;4.85;100.00;98407.66;4963987;28;19922;-90
2021/12/25 14:23:40;;;;;;;;;;;;;;;4.89;100.00;98408.38;4964705;28;20337;-92
2021/12/25 14:26:13;;;;;;;;;;;;;;;4.90;100.00;98413.56;4972182;28;19922;-90
2021/12/25 14:28:38;;;;;;;;;;;;;;;4.19;100.00;98416.38;4947815;28;19918;-90
2021/12/25 14:31:05;;;;;;;;;;;;;;;3.76;100.00;98418.00;4948729;28;19925;-94
2021/12/25 14:33:32;;;;;;;;;;;;;;;3.56;100.00;98420.53;4964602;28;19922;-92
2021/12/25 14:35:57;;;;;;;;;;;;;;;3.37;100.00;98413.31;4970972;28;19977;-89
2021/12/25 14:38:23;;;;;;;;;;;;;;;3.39;100.00;98419.34;4947455;28;19922;-93
2021/12/25 14:40:50;;;;;;;;;;;;;;;3.31;100.00;98413.53;4947057;28;20370;-93
2021/12/25 14:43:36;;;;;;;;;;;;;;;3.22;100.00;98426.94;4947244;28;19922;-93
2021/12/25 14:46:02;;;;;;;;;;;;;;;3.19;100.00;98425.28;4946467;28;19982;-87
2021/12/25 14:48:28;;;;;;;;;;;;;;;3.16;99.86;98421.91;4947516;28;19924;-87
2021/12/25 14:50:55;;;;;;;;;;;;;;;3.17;98.98;98421.84;4962590;28;19922;-88
2021/12/25 14:53:20;;;;;;;;;;;;;;;3.14;98.08;98421.97;4964105;28;20001;-88
2021/12/25 14:55:48;;;;;;;;;;;;;;;3.11;97.54;98427.28;4964015;28;20017;-90
2021/12/25 14:58:18;;;;;;;;;;;;;;;3.08;96.92;98430.03;4947174;28;19922;-92
2021/12/25 15:00:45;;;;;;;;;;;;;;;3.03;95.92;98430.19;4946539;28;19926;-91
2021/12/25 15:03:21;;;;;;;;;;;;;;;3.01;95.27;98434.59;4947749;28;19923;-88
2021/12/25 15:05:49;;;;;;;;;;;;;;;2.99;94.78;98436.44;4945168;28;19922;-94
2021/12/25 15:08:25;;;;;;;;;;;;;;;2.94;94.10;98433.13;4946215;28;20365;-88
2021/12/25 15:10:53;;;;;;;;;;;;;;;2.94;93.68;98435.72;4954232;28;19918;-89
2021/12/25 15:13:20;;;;;;;;;;;;;;;2.89;93.23;98442.88;4964249;28;19918;-92
2021/12/25 15:15:56;;;;;;;;;;;;;;;2.88;92.84;98433.31;4946333;28;19958;-86
2021/12/25 15:18:24;;;;;;;;;;;;;;;2.86;92.41;98446.44;4965437;28;19919;-88
2021/12/25 15:21:02;;;;;;;;;;;;;;;2.87;92.10;98449.91;4961850;28;19918;-89
2021/12/25 15:23:27;;;;;;;;;;;;;;;2.79;91.57;98444.09;4970631;28;19926;-91
2021/12/25 15:26:05;;;;;;;;;;;;;;;2.78;91.34;98450.25;4946972;28;19918;-88
2021/12/25 15:28:30;;;;;;;;;;;;;;;2.76;90.90;98446.78;4970401;28;19926;-91
2021/12/25 15:30:55;;;;;;;;;;;;;;;2.73;90.46;98456.47;4963782;28;19922;-90
2021/12/25 15:33:21;;;;;;;;;;;;;;;2.74;90.31;98454.69;4946467;28;19923;-90
2021/12/25 15:35:46;;;;;;;;;;;;;;;2.72;90.01;98452.13;4945140;28;19918;-92
2021/12/25 15:38:23;;;;;;;;;;;;;;;2.69;89.79;98444.38;4930324;28;22130;-93
2021/12/25 15:40:49;;;;;;;;;;;;;;;2.67;89.44;98448.81;4970407;28;19918;-91
2021/12/25 15:43:16;;;;;;;;;;;;;;;2.65;89.13;98450.63;4963220;28;20297;-88
2021/12/25 15:45:42;;;;;;;;;;;;;;;2.65;89.00;98454.97;4947077;28;20001;-90
2021/12/25 15:48:07;;;;;;;;;;;;;;;2.63;88.64;98457.69;4963347;28;20006;-90
2021/12/25 15:50:41;;;;;;;;;;;;;;;2.60;88.29;98456.91;4962722;28;19918;-93
2021/12/25 15:53:06;;;;;;;;;;;;;;;2.58;88.15;98454.31;4946844;28;19988;-93
2021/12/25 15:55:33;;;;;;;;;;;;;;;2.56;88.01;98460.53;4963437;28;19962;-88
2021/12/25 15:58:13;;;;;;;;;;;;;;;2.56;87.98;98461.38;4946649;28;19919;-93
2021/12/25 16:00:42;;;;;;;;;;;;;;;2.52;87.75;98470.19;4946648;28;19927;-89
2021/12/25 16:03:10;;;;;;;;;;;;;;;2.52;87.40;98478.03;4963048;28;19933;-91
2021/12/25 16:05:38;;;;;;;;;;;;;;;2.49;87.26;98467.69;4944920;28;19925;-89
2021/12/25 16:08:04;;;;;;;;;;;;;;;2.48;87.06;98466.00;4946693;28;19925;-89
2021/12/25 16:10:30;;;;;;;;;;;;;;;2.49;86.91;98467.69;4964052;28;19926;-89
2021/12/25 16:12:55;;;;;;;;;;;;;;;2.45;86.90;98469.53;4962999;28;19918;-93
2021/12/25 16:15:21;;;;;;;;;;;;;;;2.41;86.71;98467.06;4970318;28;20382;-90
2021/12/25 16:17:46;;;;;;;;;;;;;;;2.45;86.51;98472.16;4962812;28;19918;-92
2021/12/25 16:20:13;;;;;;;;;;;;;;;2.42;86.48;98474.88;4961897;28;19914;-94
2021/12/25 16:22:39;;;;;;;;;;;;;;;2.44;86.42;98480.03;4964121;28;20052;-91
2021/12/25 16:25:04;;;;;;;;;;;;;;;2.41;86.49;98477.53;4963441;28;20008;-86
2021/12/25 16:27:30;;;;;;;;;;;;;;;2.40;86.33;98479.28;4964325;28;19918;-93
2021/12/25 16:29:55;;;;;;;;;;;;;;;2.39;86.09;98477.56;4966703;28;20068;-93
2021/12/25 16:32:20;;;;;;;;;;;;;;;2.39;85.98;98485.41;4949544;28;20338;-89
2021/12/25 16:34:46;;;;;;;;;;;;;;;2.39;86.06;98484.56;4965894;28;19928;-92
2021/12/25 16:37:11;;;;;;;;;;;;;;;2.41;86.32;98485.38;4949816;28;19928;-94
2021/12/25 16:39:36;;;;;;;;;;;;;;;2.38;86.50;98482.84;4950055;28;20008;-92
2021/12/25 16:42:02;;;;;;;;;;;;;;;2.40;86.68;98486.28;4951129;28;19929;-93
2021/12/25 16:44:35;;;;;;;;;;;;;;;2.42;86.57;98494.94;4967279;28;19918;-91
2021/12/25 16:47:01;;;;;;;;;;;;;;;2.36;86.41;98489.00;4948677;28;20309;-92
2021/12/25 16:49:26;;;;;;;;;;;;;;;2.37;86.75;98489.84;4947879;28;19919;-93
2021/12/25 16:51:53;;;;;;;;;;;;;;;2.37;86.75;98492.47;4949334;28;19922;-92
2021/12/25 16:54:20;;;;;;;;;;;;;;;2.38;86.81;98494.19;4949367;28;20289;-91
2021/12/25 16:56:48;;;;;;;;;;;;;;;2.38;86.83;98495.91;4944729;29;19918;-87
2021/12/25 16:59:15;;;;;;;;;;;;;;;2.39;86.71;98500.25;4945244;28;20017;-89
2021/12/25 17:01:40;;;;;;;;;;;;;;;2.39;86.74;98506.31;4929282;29;19918;-89
2021/12/25 17:04:05;;;;;;;;;;;;;;;2.39;86.62;98510.72;4936795;29;20287;-93
2021/12/25 17:06:33;;;;;;;;;;;;;;;2.34;86.51;98514.31;4943003;28;20313;-87
2021/12/25 17:08:58;;;;;;;;;;;;;;;2.39;86.36;98510.72;4929316;29;19926;-87
2021/12/25 17:11:24;;;;;;;;;;;;;;;2.40;86.19;98512.44;4928722;29;19922;-91
2021/12/25 17:13:50;;;;;;;;;;;;;;;2.34;85.88;98522.16;4929129;29;19965;-86
2021/12/25 17:16:15;;;;;;;;;;;;;;;2.36;85.88;98515.13;4944652;29;19927;-89
2021/12/25 17:18:41;;;;;;;;;;;;;;;2.38;85.93;98535.13;4928782;29;19919;-86
2021/12/25 17:21:06;;;;;;;;;;;;;;;2.35;85.78;98529.09;4949932;28;19925;-94
2021/12/25 17:23:31;;;;;;;;;;;;;;;2.32;85.61;98533.56;4949304;28;20285;-91
2021/12/25 17:25:57;;;;;;;;;;;;;;;2.32;85.13;98542.25;4948965;28;19922;-90
2021/12/25 17:28:22;;;;;;;;;;;;;;;2.27;84.84;98543.31;4965060;28;19918;-92
2021/12/25 17:30:49;;;;;;;;;;;;;;;2.23;84.74;98552.13;4973001;28;20301;-94
2021/12/25 17:33:15;;;;;;;;;;;;;;;2.21;84.36;98554.78;4965670;28;20009;-91
2021/12/25 17:35:40;;;;;;;;;;;;;;;2.21;83.91;98565.25;4964960;28;19918;-92
2021/12/25 17:38:06;;;;;;;;;;;;;;;2.21;83.66;98569.63;4965715;28;19918;-86
2021/12/25 17:40:36;;;;;;;;;;;;;;;2.17;83.96;98568.81;4947210;28;19915;-88
2021/12/25 17:43:01;;;;;;;;;;;;;;;2.19;83.63;98574.91;4965214;28;19918;-85
2021/12/25 17:45:27;;;;;;;;;;;;;;;2.19;83.37;98572.28;4966277;28;20506;-91
2021/12/25 17:47:53;;;;;;;;;;;;;;;2.24;83.25;98574.75;4965403;28;19999;-86
2021/12/25 17:50:20;;;;;;;;;;;;;;;2.24;83.06;98574.75;4964381;28;19941;-89
2021/12/25 17:52:45;;;;;;;;;;;;;;;2.19;82.69;98574.91;4966205;28;20317;-85
2021/12/25 17:55:12;;;;;;;;;;;;;;;2.15;82.47;98568.91;4965362;28;19919;-89
2021/12/25 17:57:38;;;;;;;;;;;;;;;2.13;82.32;98573.28;4948082;28;19929;-89
2021/12/25 18:00:05;;;;;;;;;;;;;;;2.15;82.55;98581.09;4965211;28;19918;-86
2021/12/25 18:02:30;;;;;;;;;;;;;;;2.15;82.18;98581.09;4965108;28;20029;-88
2021/12/25 18:04:55;;;;;;;;;;;;;;;2.13;81.86;98577.66;4965268;28;20377;-93
2021/12/25 18:07:21;;;;;;;;;;;;;;;2.13;81.94;98577.66;4965384;28;20381;-86
2021/12/25 18:09:46;;;;;;;;;;;;;;;2.14;82.01;98580.25;4964837;28;19949;-90
2021/12/25 18:12:13;;;;;;;;;;;;;;;2.15;82.18;98575.88;4965053;28;20289;-86
2021/12/25 18:14:38;;;;;;;;;;;;;;;2.14;82.19;98574.16;4965004;28;19919;-89
2021/12/25 18:17:05;;;;;;;;;;;;;;;2.16;82.16;98577.59;4947232;28;19918;-87
2021/12/25 18:19:31;;;;;;;;;;;;;;;2.15;82.11;98581.09;4963324;28;19914;-90
2021/12/25 18:21:56;;;;;;;;;;;;;;;2.11;81.69;98575.09;4964998;28;20025;-87
2021/12/25 18:24:22;;;;;;;;;;;;;;;2.10;81.47;98580.38;4947436;28;19914;-88
2021/12/25 18:26:47;;;;;;;;;;;;;;;2.10;81.13;98588.22;4947162;28;20428;-87
2021/12/25 18:29:12;;;;;;;;;;;;;;;2.07;80.85;98589.13;4947401;28;20382;-87
2021/12/25 18:31:37;;;;;;;;;;;;;;;2.08;80.82;98596.09;4946967;28;19925;-86
2021/12/25 18:34:03;;;;;;;;;;;;;;;2.09;80.79;98583.88;4964254;28;19918;-87
2021/12/25 18:36:28;;;;;;;;;;;;;;;2.08;80.63;98596.09;4946469;28;20072;-86
2021/12/25 18:38:54;;;;;;;;;;;;;;;2.05;80.42;98596.16;4964541;28;20001;-88
2021/12/25 18:41:20;;;;;;;;;;;;;;;2.05;80.46;98605.78;4963957;28;20274;-88
2021/12/25 18:43:48;;;;;;;;;;;;;;;2.04;80.57;98601.44;4947231;28;19925;-87
2021/12/25 18:46:14;;;;;;;;;;;;;;;2.04;80.44;98594.44;4964144;28;19941;-86
2021/12/25 18:48:42;;;;;;;;;;;;;;;2.10;80.73;98596.03;4946520;28;20369;-88
2021/12/25 18:51:07;;;;;;;;;;;;;;;2.08;80.40;98597.84;4940400;28;19926;-90
2021/12/25 18:53:33;;;;;;;;;;;;;;;2.08;80.27;98601.31;4934624;29;19930;-89
2021/12/25 18:55:58;;;;;;;;;;;;;;;2.09;80.50;98597.81;4942376;29;19919;-88
2021/12/25 18:58:24;;;;;;;;;;;;;;;2.09;80.30;98599.56;4950674;29;19930;-88
2021/12/25 19:00:50;;;;;;;;;;;;;;;2.07;80.12;98602.19;4942463;28;19960;-89
2021/12/25 19:03:17;;;;;;;;;;;;;;;2.08;80.13;98603.09;4926506;29;19925;-91
2021/12/25 19:05:42;;;;;;;;;;;;;;;2.08;79.98;98600.47;4941446;28;19942;-90
2021/12/25 19:08:08;;;;;;;;;;;;;;;2.10;80.13;98609.97;4942162;29;20398;-88
2021/12/25 19:10:33;;;;;;;;;;;;;;;2.09;80.25;98625.69;4942173;29;19930;-90
2021/12/25 19:12:59;;;;;;;;;;;;;;;2.11;80.16;98632.59;4942178;29;19919;-87
2021/12/25 19:15:24;;;;;;;;;;;;;;;2.08;79.72;98626.59;4950486;28;20280;-88
2021/12/25 19:17:50;;;;;;;;;;;;;;;2.09;79.71;98623.94;4964010;28;20013;-89
2021/12/25 19:20:18;;;;;;;;;;;;;;;2.09;79.49;98625.69;4944972;28;19919;-91
2021/12/25 19:22:44;;;;;;;;;;;;;;;2.07;79.31;98625.72;4963889;28;19922;-88
2021/12/25 19:25:10;;;;;;;;;;;;;;;2.06;78.84;98623.16;4964018;28;19940;-89
2021/12/25 19:27:36;;;;;;;;;;;;;;;2.08;79.01;98629.22;4946342;28;19926;-91
2021/12/25 19:30:03;;;;;;;;;;;;;;;2.08;78.82;98622.22;4963136;28;19922;-91
2021/12/25 19:32:29;;;;;;;;;;;;;;;2.06;78.53;98621.41;4946929;28;19976;-92
2021/12/25 19:34:54;;;;;;;;;;;;;;;2.06;78.01;98623.16;4961849;28;19918;-91
2021/12/25 19:37:19;;;;;;;;;;;;;;;2.05;77.62;98630.16;4963082;28;19941;-92
2021/12/25 19:39:44;;;;;;;;;;;;;;;2.08;78.05;98626.59;4963107;28;20001;-88
2021/12/25 19:42:10;;;;;;;;;;;;;;;2.08;77.82;98622.22;4966226;28;20054;-92
2021/12/25 19:44:35;;;;;;;;;;;;;;;2.06;77.45;98624.03;4967084;28;20388;-91
2021/12/25 19:47:00;;;;;;;;;;;;;;;2.06;77.37;98628.38;4947311;28;20009;-91
2021/12/25 19:49:26;;;;;;;;;;;;;;;2.05;77.66;98622.31;4962630;28;19944;-88
2021/12/25 19:51:51;;;;;;;;;;;;;;;2.08;77.49;98619.59;4963045;28;19922;-86
2021/12/25 19:54:17;;;;;;;;;;;;;;;2.09;77.45;98620.44;4962051;28;19930;-86
2021/12/25 19:56:42;;;;;;;;;;;;;;;2.12;77.30;98625.59;4964201;28;19925;-89
2021/12/25 19:59:08;;;;;;;;;;;;;;;2.08;76.57;98629.22;4963735;28;19914;-86
2021/12/25 20:01:33;;;;;;;;;;;;;;;2.11;76.60;98636.97;4945542;28;20278;-88
2021/12/25 20:04:00;;;;;;;;;;;;;;;2.16;77.01;98640.31;4950811;28;19919;-89
2021/12/25 20:06:25;;;;;;;;;;;;;;;2.16;76.79;98642.94;4968405;28;19914;-91
2021/12/25 20:08:53;;;;;;;;;;;;;;;2.17;76.87;98636.78;4952106;28;19925;-91
2021/12/25 20:11:19;;;;;;;;;;;;;;;2.18;76.75;98639.34;4949898;28;19957;-93
2021/12/25 20:13:45;;;;;;;;;;;;;;;2.21;76.63;98638.44;4952531;28;19962;-89
2021/12/25 20:16:12;;;;;;;;;;;;;;;2.16;76.80;98629.84;4953820;28;19918;-91
2021/12/25 20:18:39;;;;;;;;;;;;;;;2.18;76.55;98628.06;4969320;28;19926;-91
2021/12/25 20:21:05;;;;;;;;;;;;;;;2.16;75.92;98624.63;4972582;28;19918;-91
2021/12/25 20:23:30;;;;;;;;;;;;;;;2.19;75.71;98627.16;4952530;28;19937;-91
2021/12/25 20:25:58;;;;;;;;;;;;;;;2.15;75.62;98636.84;4952016;28;19918;-91
2021/12/25 20:28:24;;;;;;;;;;;;;;;2.15;75.18;98644.69;4965796;28;19918;-92
2021/12/25 20:30:50;;;;;;;;;;;;;;;2.17;74.93;98647.25;4948963;28;20039;-90
2021/12/25 20:33:17;;;;;;;;;;;;;;;2.14;74.59;98642.13;4974656;28;19933;-91
2021/12/25 20:35:42;;;;;;;;;;;;;;;2.12;74.56;98650.00;4950222;28;20401;-88
2021/12/25 20:38:08;;;;;;;;;;;;;;;2.13;74.67;98640.41;4966498;28;20017;-92
2021/12/25 20:40:34;;;;;;;;;;;;;;;2.19;74.44;98635.00;4952940;28;19918;-91
2021/12/25 20:43:02;;;;;;;;;;;;;;;2.14;74.43;98636.91;4951631;28;19918;-92
2021/12/25 20:45:46;;;;;;;;;;;;;;;2.19;74.63;98640.22;4972938;28;19923;-89
2021/12/25 20:48:22;;;;;;;;;;;;;;;2.20;74.50;98636.69;4973823;28;19969;-87
2021/12/25 20:50:50;;;;;;;;;;;;;;;2.16;74.44;98641.16;4964923;28;20459;-87
2021/12/25 20:53:15;;;;;;;;;;;;;;;2.19;74.41;98637.63;4949360;28;20012;-89
2021/12/25 20:55:41;;;;;;;;;;;;;;;2.23;74.32;98635.78;4966234;28;20386;-88
2021/12/25 20:58:06;;;;;;;;;;;;;;;2.24;74.34;98632.28;4972236;28;20197;-91
2021/12/25 21:00:34;;;;;;;;;;;;;;;2.24;73.79;98637.50;4950028;28;19969;-90
2021/12/25 21:02:59;;;;;;;;;;;;;;;2.25;74.29;98633.97;4949742;28;19926;-86
2021/12/25 21:05:25;;;;;;;;;;;;;;;2.24;74.01;98638.34;4965295;28;19918;-87
2021/12/25 21:07:52;;;;;;;;;;;;;;;2.27;73.76;98638.25;4948338;28;19949;-91
2021/12/25 21:10:18;;;;;;;;;;;;;;;2.27;73.60;98638.25;4971292;28;20345;-90
2021/12/25 21:12:43;;;;;;;;;;;;;;;2.28;73.55;98637.38;4966876;28;19978;-89
2021/12/25 21:15:10;;;;;;;;;;;;;;;2.32;73.58;98641.59;4947614;28;19924;-87
2021/12/25 21:17:36;;;;;;;;;;;;;;;2.30;73.31;98632.09;4949139;28;20013;-87
2021/12/25 21:20:03;;;;;;;;;;;;;;;2.29;73.31;98639.06;4948082;28;20012;-92
2021/12/25 21:22:29;;;;;;;;;;;;;;;2.30;73.22;98635.56;4972324;28;19976;-89
2021/12/25 21:24:54;;;;;;;;;;;;;;;2.32;73.14;98638.13;4972793;28;19922;-85
2021/12/25 21:27:19;;;;;;;;;;;;;;;2.28;72.90;98640.00;4972549;28;19919;-86
2021/12/25 21:29:48;;;;;;;;;;;;;;;2.32;72.92;98643.38;4948375;28;19930;-89
2021/12/25 21:32:14;;;;;;;;;;;;;;;2.34;72.87;98634.56;4949005;28;19922;-89
2021/12/25 21:34:39;;;;;;;;;;;;;;;2.39;73.34;98630.97;4947649;28;19930;-89
2021/12/25 21:37:05;;;;;;;;;;;;;;;2.36;73.45;98634.53;4972815;28;19929;-92
2021/12/25 21:39:34;;;;;;;;;;;;;;;2.35;73.31;98625.84;4965350;28;19922;-93
2021/12/25 21:42:01;;;;;;;;;;;;;;;2.38;73.13;98634.47;4966273;28;19923;-88
2021/12/25 21:44:26;;;;;;;;;;;;;;;2.43;72.98;98635.22;4948927;28;20001;-91
2021/12/25 21:46:52;;;;;;;;;;;;;;;2.43;73.51;98640.47;4967353;28;19965;-88
2021/12/25 21:49:17;;;;;;;;;;;;;;;2.44;73.34;98635.19;4972628;28;19922;-91
2021/12/25 21:51:42;;;;;;;;;;;;;;;2.45;73.14;98636.03;4947267;28;20874;-91
2021/12/25 21:54:08;;;;;;;;;;;;;;;2.47;72.88;98635.09;4949810;28;19919;-91
2021/12/25 21:56:36;;;;;;;;;;;;;;;2.50;73.08;98634.16;4965943;28;19929;-92
2021/12/25 21:59:02;;;;;;;;;;;;;;;2.50;72.93;98637.59;4972943;28;20001;-90
2021/12/25 22:01:39;;;;;;;;;;;;;;;2.53;73.00;98631.44;4956488;28;19922;-91
2021/12/25 22:04:13;;;;;;;;;;;;;;;2.56;72.85;98630.50;4973167;28;20347;-93
2021/12/25 22:06:39;;;;;;;;;;;;;;;2.56;72.57;98631.34;4950557;28;19918;-94
2021/12/25 22:09:05;;;;;;;;;;;;;;;2.53;72.65;98636.69;4947974;28;20009;-92
2021/12/25 22:11:40;;;;;;;;;;;;;;;;;;;;;
2021/12/25 22:14:07;;;;;;;;;;;;;;;2.54;72.87;98641.88;4965124;28;20393;-92
2021/12/25 22:16:35;;;;;;;;;;;;;;;2.59;72.69;98646.97;4949625;28;19984;-90
2021/12/25 22:19:03;;;;;;;;;;;;;;;2.58;72.59;98640.00;4949278;28;19926;-91
2021/12/25 22:21:29;;;;;;;;;;;;;;;2.57;72.72;98643.53;4948044;28;19918;-91
2021/12/25 22:23:56;;;;;;;;;;;;;;;2.60;72.79;98645.19;4965243;28;19973;-90
2021/12/25 22:26:21;;;;;;;;;;;;;;;2.63;72.68;98643.38;4949005;28;20425;-93
2021/12/25 22:28:47;;;;;;;;;;;;;;;2.62;72.32;98639.03;4948203;28;19926;-90
2021/12/25 22:31:12;;;;;;;;;;;;;;;2.62;72.63;98638.19;4965656;28;19973;-91
2021/12/25 22:33:38;;;;;;;;;;;;;;;2.65;72.58;98641.56;4946359;28;20410;-92
2021/12/25 22:36:07;;;;;;;;;;;;;;;2.68;72.54;98638.84;4962558;28;19919;-92
2021/12/25 22:38:32;;;;;;;;;;;;;;;2.68;72.52;98640.59;4946929;28;19949;-90
2021/12/25 22:41:00;;;;;;;;;;;;;;;2.66;72.28;98640.63;4963802;28;19968;-91
2021/12/25 22:43:25;;;;;;;;;;;;;;;2.68;72.28;98644.09;4948868;28;19962;-92
2021/12/25 22:45:51;;;;;;;;;;;;;;;2.65;72.13;98638.94;4948380;28;19918;-90
2021/12/25 22:48:19;;;;;;;;;;;;;;;2.70;72.17;98637.03;4944963;28;20356;-92
2021/12/25 22:50:44;;;;;;;;;;;;;;;2.73;72.15;98638.72;4948655;28;19933;-92
2021/12/25 22:53:11;;;;;;;;;;;;;;;2.70;71.88;98630.97;4966297;28;19918;-90
2021/12/25 22:55:36;;;;;;;;;;;;;;;2.78;72.07;98631.59;4948549;28;19918;-90
2021/12/25 22:58:02;;;;;;;;;;;;;;;2.75;71.91;98631.69;4967559;28;20057;-92
2021/12/25 23:00:35;;;;;;;;;;;;;;;2.76;71.67;98640.38;4968402;28;20411;-92
2021/12/25 23:03:01;;;;;;;;;;;;;;;2.79;71.65;98640.28;4964579;28;19919;-92
2021/12/25 23:05:30;;;;;;;;;;;;;;;2.80;71.68;98642.00;4963258;28;20064;-91
2021/12/25 23:07:56;;;;;;;;;;;;;;;2.83;71.85;98639.31;4963019;28;19968;-87
2021/12/25 23:10:21;;;;;;;;;;;;;;;2.82;71.88;98624.50;4946957;28;19926;-92
2021/12/25 23:12:46;;;;;;;;;;;;;;;2.85;71.89;98629.66;4947091;28;20369;-90
2021/12/25 23:15:12;;;;;;;;;;;;;;;2.85;71.72;98625.25;4947672;28;20030;-89
2021/12/25 23:17:37;;;;;;;;;;;;;;;2.82;71.71;98630.59;4963855;28;19929;-88
2021/12/25 23:20:04;;;;;;;;;;;;;;;2.85;71.31;98629.66;4963203;28;19918;-88
2021/12/25 23:22:29;;;;;;;;;;;;;;;2.87;71.40;98627.84;4946959;28;20069;-83
2021/12/25 23:24:54;;;;;;;;;;;;;;;3.28;73.36;98633.56;4963904;28;20372;-89
2021/12/25 23:27:19;;;;;;;;;;;;;;;3.07;73.71;98630.69;4963238;28;19918;-87
2021/12/25 23:29:45;;;;;;;;;;;;;;;3.00;73.52;98629.19;4963153;28;19918;-88
2021/12/25 23:32:10;;;;;;;;;;;;;;;2.98;73.10;98630.13;4970392;28;19928;-88
2021/12/25 23:34:35;;;;;;;;;;;;;;;2.95;72.67;98630.22;4963352;28;19918;-85
2021/12/25 23:37:00;;;;;;;;;;;;;;;2.98;72.73;98630.13;4963001;28;19957;-86
2021/12/25 23:39:26;;;;;;;;;;;;;;;2.94;72.30;98626.75;4945653;28;19918;-85
2021/12/25 23:41:54;;;;;;;;;;;;;;;2.95;72.13;98620.59;4946173;28;19929;-84
2021/12/25 23:44:21;;;;;;;;;;;;;;;2.97;72.08;98617.94;4963153;28;19919;-85
2021/12/25 23:46:47;;;;;;;;;;;;;;;2.99;71.91;98616.16;4963502;28;19918;-89
2021/12/25 23:49:12;;;;;;;;;;;;;;;3.02;71.77;98616.91;4947226;28;19926;-83
2021/12/25 23:51:38;;;;;;;;;;;;;;;2.98;71.82;98615.28;4969781;28;20324;-93
2021/12/25 23:54:04;;;;;;;;;;;;;;;3.02;71.61;98610.81;4966336;28;19925;-90
2021/12/25 23:56:30;;;;;;;;;;;;;;;3.00;71.43;98608.25;4945455;28;19925;-87
2021/12/25 23:58:55;;;;;;;;;;;;;;;3.02;71.63;98605.59;4946619;28;19918;-88
